x

Portland 12 Nm Southeast Of Portland,me (44007) Wave Buoy

11:50am - Sun 21st Sep 2014 All times are EDT. -4 hours from GMT.

  • Sig Wave height 2.6ft
  • Swell Direction
  • Peak Period 5s
  • Average Period 5s
  • Wind
    18mph, 22mph gusts
  • Sea Temp 59°f
  • Air Temp 62°f
  • Sea Pressure 1011.4mb
  • Portland 12 Nm Southeast Of Portland,me
  • Portland 12 Nm Southeast Of Portland,me

More Historic Weather Station data

Upgrade to MSW Pro to gain access to the past 30 days of data for over 8000 Wavebouys and Weather Stations around the globe.

Join Pro

Comparision Forecast

View Surf forecast
   
Sun 09/21 11:50am 2.5ft 5s 5s 18 22 mph 1011.4mb 59f 62f
10:50am 2.5ft 5s 5s 9 11 mph 1012.8mb 59f 61f
9:50am 2.5ft 5s 5s 7 9 mph 1013.5mb 59f 60f
8:50am 2.5ft 5s 5s 11 13 mph 1013.4mb 59f 60f
7:50am 2.5ft 5s 4s 7 9 mph 1014.2mb 59f 60f
6:50am 2.5ft 4s 4s 13 16 mph 1014.6mb 59f 60f
5:50am 3ft 5s 4s 11 16 mph 1014.5mb 59f 60f
4:50am 3ft 6s 5s 9 11 mph 1015.4mb 59f 60f
3:50am 3.5ft 6s 5s 7
mph
1016mb 58f 59f
2:50am 3.5ft 5s 5s 9 11 mph 1016.8mb 58f 60f
1:50am 4ft 6s 5s 16 18 mph 1017.1mb 58f 60f
12:50am 4ft 6s 5s 16 20 mph 1017.6mb 58f 61f
Sat 09/20 11:50pm 4.5ft 6s 5s 18 20 mph 1017.8mb 58f 61f
10:50pm 4.5ft 6s 5s 22 27 mph 1018.1mb 58f 62f
9:50pm 4.5ft 6s 5s 18 22 mph 1018.8mb 58f 61f
8:50pm 4.5ft 6s 5s 18 22 mph 1019.2mb 58f 61f
7:50pm 4.5ft 6s 5s 18 20 mph 1019.4mb 58f 61f
6:50pm 5ft 6s 5s 18 22 mph 1019.7mb 58f 60f
5:50pm 4.5ft 6s 5s 20 22 mph 1019.9mb 58f 60f
4:50pm 5ft 6s 5s 18 22 mph 1020.6mb 58f 59f
3:50pm 5ft 6s 5s 18 22 mph 1021.2mb 58f 59f
2:50pm 5ft 6s 5s 18 22 mph 1022mb 58f 59f
1:50pm 5ft 6s 5s 20 25 mph 1022.7mb 58f 58f
12:50pm 4.5ft 6s 5s 20 25 mph 1023.5mb 58f 58f
11:50am 4.5ft 6s 4s 20 25 mph 1024.6mb 57f 58f
10:50am 4ft 5s 4s 20 25 mph 1024.9mb 57f 57f
9:50am 3.5ft 5s 4s 20 25 mph 1025.6mb 57f 56f
8:50am 3ft 5s 4s 11 16 mph 1026.4mb 57f 53f
7:50am 3ft 4s 4s 13
mph
1027.4mb 57f 50f
6:50am 2.5ft 4s 4s 20 22 mph 1027.2mb 57f 55f
5:50am 2.5ft 4s 4s 13 16 mph 1027.6mb 57f 52f
4:50am 2.5ft 4s 4s 16 18 mph 1028.5mb 57f 51f
3:50am 3ft 4s 4s 13 16 mph 1028.4mb 57f 51f
2:50am 3ft 4s 4s 18 20 mph 1028.4mb 57f 54f
1:50am 3ft 4s 4s 18 20 mph 1028.9mb 57f 54f
12:50am 2.5ft 3s 4s 18 20 mph 1029mb 57f 53f
Fri 09/19 11:50pm 2.5ft 4s 4s 18 20 mph 1029mb 57f 53f
10:50pm 2.5ft 7s 4s 18 20 mph 1029.4mb 57f 53f
9:50pm 2ft 7s 4s 13 16 mph 1029.7mb 57f 54f
8:50pm 2ft 7s 5s 13 16 mph 1029.8mb 58f 54f
7:50pm 2ft 10s 6s 11 13 mph 1029.6mb 58f 53f
6:50pm 2ft 10s 6s 11 13 mph 1029.2mb 58f 53f
5:50pm 1.6ft 8s 7s 11 13 mph 1029.2mb 58f 53f
4:50pm 1.6ft 8s 6s 9 11 mph 1029.2mb 58f 53f
3:50pm 1.6ft 11s 6s 9 11 mph 1029.2mb 58f 52f
2:50pm 1.6ft 11s 5s 4 7 mph 1029.6mb 58f 51f
1:50pm 1.6ft 10s 5s 4 7 mph 1029.9mb 58f 51f
12:50pm 1.6ft 11s 5s 4 7 mph 1029.6mb 58f 49f
11:50am 1.6ft 11s 4s 7 9 mph 1029.4mb 58f 49f
10:50am 2ft 10s 4s 7 11 mph 1029.2mb 57f 47f
9:50am 2ft 11s 4s 11 16 mph 1028.7mb 57f 47f
8:50am 2.5ft 3s 4s 16 20 mph 1028mb 57f 47f
7:50am 2.5ft 11s 4s 20 22 mph 1027mb 57f 47f
6:50am 2.5ft 12s 4s 18 20 mph 1026.2mb 57f 47f
5:50am 3ft 8s 4s 20 22 mph 1025.4mb 57f 47f
4:50am 3.5ft 9s 5s 18 22 mph 1024.6mb 57f 48f
3:50am 3.5ft 10s 5s 18 20 mph 1023.8mb 58f 49f
2:50am 3.5ft 10s 5s 16 20 mph 1023.1mb 58f 49f
1:50am 3.5ft 9s 5s 18 22 mph 1022.6mb 58f 50f
12:50am 3.5ft 10s 4s 20 25 mph 1021.5mb 58f 51f
Thu 09/18 11:50pm 3.5ft 10s 4s 20 25 mph 1020.8mb 59f 53f
10:50pm 2.5ft 11s 5s 20 25 mph 1019.9mb 59f 54f
9:50pm 2.5ft 11s 4s 22 25 mph 1019mb 59f 55f
8:50pm 2.5ft 12s 5s 22 27 mph 1018.3mb 59f 57f
7:50pm 2.5ft 12s 5s 20 25 mph 1017.1mb 59f 58f
6:50pm 2.5ft 11s 8s 16 20 mph 1016mb 60f 61f
5:50pm 2.5ft 11s 8s 4
mph
1015.4mb 60f 61f
4:50pm 2.5ft 13s 8s 4 7 mph 1014.6mb 60f 62f
3:50pm 3.5ft 13s 9s 4 7 mph 1014.3mb 60f 61f
2:50pm 3.5ft 11s 9s 2 4 mph 1014.2mb 61f 62f
1:50pm 4.5ft 13s 10s 7 9 mph 1013.9mb 62f 61f
12:50pm 5ft 13s 10s 4
mph
1014mb 62f 60f
11:50am 4.5ft 13s 10s 2 4 mph 1014.2mb 61f 59f
10:50am 4.5ft 14s 10s 4
mph
1014.4mb 60f 57f
9:50am 4ft 13s 10s 2
mph
1014.4mb 59f 56f
8:50am 3.5ft 14s 9s 7 9 mph 1014mb 59f 54f
7:50am 3.5ft 14s 9s 7 9 mph 1013.7mb 59f 55f
6:50am 3ft 14s 9s 4 7 mph 1013.3mb 59f 54f
5:50am 3ft 14s 8s 7 9 mph 1012.8mb 59f 55f
4:50am 3ft 15s 8s 9
mph
1012.3mb 59f 57f
3:50am 3.5ft 14s 8s 9 11 mph 1012.3mb 59f 58f
2:50am 3.5ft 15s 8s 7 9 mph 1012.8mb 59f 58f
1:50am 3.5ft 14s 8s 9
mph
1013.2mb 60f 58f
12:50am 3.5ft 12s 8s 9 11 mph 1013.4mb 60f 59f
Wed 09/17 11:50pm 3.5ft 13s 9s 9
mph
1013.7mb 60f 60f
10:50pm 3ft 13s 8s 9 11 mph 1013.8mb 60f 60f
9:50pm 2.5ft 12s 9s 9 11 mph 1014.2mb 60f 61f
8:50pm 3ft 12s 10s 7 9 mph 1014.7mb 60f 60f
7:50pm 2.5ft 13s 10s 9
mph
1014.4mb 61f 61f
6:50pm 2.5ft 13s 10s 4
mph
1014mb 61f 60f
5:50pm 2.5ft 14s 10s 4 7 mph 1013.8mb 61f 60f